Time,TemperatureF,DewpointF,PressureIn,WindDirection,WindDirectionDegrees,WindSpeedMPH,WindSpeedGustMPH,Humidity,HourlyPrecipIn,Conditions,Clouds,dailyrainin,SoftwareType,DateUTC
2013-01-01 00:03:00,32.0,30.0,30.04,WSW,250,5.0,8.0,94,0.00,,,0.00,,2013-01-01 05:03:00,
2013-01-01 00:12:00,32.0,30.0,30.04,WSW,250,5.0,8.0,94,0.00,,,0.00,,2013-01-01 05:12:00,
2013-01-01 00:22:00,32.0,30.0,30.04,West,260,4.0,8.0,94,0.00,,,0.00,,2013-01-01 05:22:00,
2013-01-01 00:33:00,32.0,30.0,30.04,West,260,4.0,8.0,94,0.00,,,0.00,,2013-01-01 05:33:00,
2013-01-01 00:42:00,32.0,30.0,30.04,West,260,4.0,8.0,94,0.00,,,0.00,,2013-01-01 05:42:00,
2013-01-01 00:52:00,32.0,30.0,30.04,West,260,4.0,8.0,94,0.00,,,0.00,,2013-01-01 05:52:00,
2013-01-01 01:02:00,32.0,30.0,30.04,West,278,2.0,6.0,93,0.00,,,0.00,,2013-01-01 06:02:00,
2013-01-01 01:12:00,32.0,30.0,30.04,West,278,2.0,6.0,93,0.00,,,0.00,,2013-01-01 06:12:00,
2013-01-01 01:22:00,32.0,30.0,30.03,WNW,290,4.0,6.0,92,0.00,,,0.00,,2013-01-01 06:22:00,
2013-01-01 01:32:00,32.0,30.0,30.02,West,274,3.0,7.0,91,0.00,,,0.00,,2013-01-01 06:32:00,
2013-01-01 01:42:00,32.0,30.0,30.02,West,274,3.0,7.0,91,0.00,,,0.00,,2013-01-01 06:42:00,
2013-01-01 01:52:00,32.0,29.0,30.02,WNW,297,1.0,5.0,90,0.00,,,0.00,,2013-01-01 06:52:00,
2013-01-01 02:02:00,32.0,29.0,30.01,WNW,297,2.0,7.0,90,0.00,,,0.00,,2013-01-01 07:02:00,
2013-01-01 02:12:00,32.0,29.0,30.01,WNW,297,2.0,7.0,90,0.00,,,0.00,,2013-01-01 07:12:00,
2013-01-01 02:22:00,32.0,29.0,30.01,WNW,297,2.0,7.0,90,0.00,,,0.00,,2013-01-01 07:22:00,
2013-01-01 02:32:00,31.0,28.0,30.02,WNW,290,2.0,7.0,90,0.00,,,0.00,,2013-01-01 07:32:00,
2013-01-01 02:42:00,31.0,28.0,30.02,WNW,290,2.0,7.0,90,0.00,,,0.00,,2013-01-01 07:42:00,
2013-01-01 02:52:00,31.0,28.0,30.02,WNW,290,2.0,7.0,90,0.00,,,0.00,,2013-01-01 07:52:00,
2013-01-01 03:02:00,31.0,28.0,30.04,WNW,290,2.0,8.0,90,0.00,,,0.00,,2013-01-01 08:02:00,
2013-01-01 03:12:00,31.0,28.0,30.04,WNW,290,2.0,8.0,90,0.00,,,0.00,,2013-01-01 08:12:00,
2013-01-01 03:22:00,31.0,28.0,30.04,NW,305,1.0,7.0,90,0.00,,,0.00,,2013-01-01 08:22:00,
2013-01-01 03:32:00,31.0,28.0,30.04,North,4,6.0,8.0,89,0.00,,,0.00,,2013-01-01 08:32:00,
2013-01-01 03:42:00,31.0,28.0,30.04,North,4,6.0,8.0,89,0.00,,,0.00,,2013-01-01 08:42:00,
2013-01-01 03:53:00,31.0,28.0,30.03,North,1,5.0,6.0,87,0.00,,,0.00,,2013-01-01 08:53:00,
2013-01-01 04:02:00,30.0,26.0,30.05,NNW,347,4.0,8.0,86,0.00,,,0.00,,2013-01-01 09:02:00,
2013-01-01 04:12:00,30.0,26.0,30.05,NNW,347,4.0,8.0,86,0.00,,,0.00,,2013-01-01 09:12:00,
2013-01-01 04:22:00,30.0,26.0,30.05,NNE,12,4.0,8.0,84,0.00,,,0.00,,2013-01-01 09:22:00,
2013-01-01 04:32:00,30.0,26.0,30.05,NNE,12,4.0,8.0,84,0.00,,,0.00,,2013-01-01 09:32:00,
2013-01-01 04:42:00,30.0,26.0,30.05,NNE,12,4.0,8.0,84,0.00,,,0.00,,2013-01-01 09:42:00,
2013-01-01 04:52:00,29.0,25.0,30.05,North,352,4.0,7.0,84,0.00,,,0.00,,2013-01-01 09:52:00,
2013-01-01 05:02:00,29.0,25.0,30.05,NW,318,1.0,6.0,84,0.00,,,0.00,,2013-01-01 10:02:00,
2013-01-01 05:12:00,29.0,25.0,30.05,NW,318,1.0,6.0,84,0.00,,,0.00,,2013-01-01 10:12:00,
2013-01-01 05:22:00,29.0,25.0,30.06,NNW,339,1.0,5.0,83,0.00,,,0.00,,2013-01-01 10:22:00,
2013-01-01 05:33:00,29.0,25.0,30.05,NNW,342,3.0,6.0,83,0.00,,,0.00,,2013-01-01 10:33:00,
2013-01-01 05:42:00,29.0,25.0,30.05,NNW,342,3.0,6.0,83,0.00,,,0.00,,2013-01-01 10:42:00,
2013-01-01 05:52:00,29.0,25.0,30.05,NNW,344,3.0,5.0,83,0.00,,,0.00,,2013-01-01 10:52:00,
2013-01-01 06:02:00,29.0,25.0,30.05,NNW,347,3.0,7.0,83,0.00,,,0.00,,2013-01-01 11:02:00,
2013-01-01 06:12:00,29.0,25.0,30.05,NNW,347,3.0,7.0,83,0.00,,,0.00,,2013-01-01 11:12:00,
2013-01-01 06:23:00,29.0,25.0,30.05,NNW,337,3.0,6.0,83,0.00,,,0.00,,2013-01-01 11:23:00,
2013-01-01 06:33:00,28.0,23.0,30.04,North,1,6.0,10.0,82,0.00,,,0.00,,2013-01-01 11:33:00,
2013-01-01 06:43:00,28.0,23.0,30.04,North,1,6.0,10.0,82,0.00,,,0.00,,2013-01-01 11:43:00,
2013-01-01 06:53:00,28.0,23.0,30.05,NNW,345,2.0,5.0,81,0.00,,,0.00,,2013-01-01 11:53:00,
2013-01-01 07:03:00,28.0,23.0,30.05,NNW,343,3.0,5.0,81,0.00,,,0.00,,2013-01-01 12:03:00,
2013-01-01 07:12:00,28.0,23.0,30.05,NNW,343,3.0,5.0,81,0.00,,,0.00,,2013-01-01 12:12:00,
2013-01-01 07:22:00,28.0,23.0,30.06,North,359,0.0,4.0,82,0.00,,,0.00,,2013-01-01 12:22:00,
2013-01-01 07:33:00,28.0,23.0,30.08,NNW,343,3.0,4.0,82,0.00,,,0.00,,2013-01-01 12:33:00,
2013-01-01 07:43:00,28.0,23.0,30.08,NNW,343,3.0,4.0,82,0.00,,,0.00,,2013-01-01 12:43:00,
2013-01-01 07:52:00,28.0,23.0,30.09,North,349,2.0,4.0,81,0.00,,,0.00,,2013-01-01 12:52:00,
2013-01-01 08:03:00,28.0,23.0,30.09,NNW,345,2.0,4.0,80,0.00,,,0.00,,2013-01-01 13:03:00,
2013-01-01 08:12:00,28.0,23.0,30.09,NNW,345,2.0,4.0,80,0.00,,,0.00,,2013-01-01 13:12:00,
2013-01-01 08:22:00,28.0,23.0,30.11,NNW,337,1.0,4.0,80,0.00,,,0.00,,2013-01-01 13:22:00,
2013-01-01 08:33:00,27.0,22.0,30.10,NNW,338,2.0,4.0,80,0.00,,,0.00,,2013-01-01 13:33:00,
2013-01-01 08:43:00,27.0,22.0,30.10,NNW,338,2.0,4.0,80,0.00,,,0.00,,2013-01-01 13:43:00,
2013-01-01 08:52:00,27.0,22.0,30.11,NNW,328,0.0,3.0,81,0.00,,,0.00,,2013-01-01 13:52:00,
2013-01-01 09:02:00,27.0,22.0,30.11,NNW,342,2.0,4.0,82,0.00,,,0.00,,2013-01-01 14:02:00,
2013-01-01 09:12:00,27.0,22.0,30.11,NNW,342,2.0,4.0,82,0.00,,,0.00,,2013-01-01 14:12:00,
2013-01-01 09:22:00,27.0,22.0,30.13,North,354,0.0,3.0,81,0.00,,,0.00,,2013-01-01 14:22:00,
2013-01-01 09:32:00,27.0,21.0,30.12,NNW,328,3.0,6.0,79,0.00,,,0.00,,2013-01-01 14:32:00,
2013-01-01 09:42:00,27.0,21.0,30.12,NNW,328,3.0,6.0,79,0.00,,,0.00,,2013-01-01 14:42:00,
2013-01-01 09:53:00,27.0,21.0,30.12,NNE,19,3.0,5.0,79,0.00,,,0.00,,2013-01-01 14:53:00,
2013-01-01 10:03:00,27.0,21.0,30.12,North,4,4.0,6.0,78,0.00,,,0.00,,2013-01-01 15:03:00,
2013-01-01 10:12:00,27.0,21.0,30.12,North,4,4.0,6.0,78,0.00,,,0.00,,2013-01-01 15:12:00,
2013-01-01 10:22:00,26.0,20.0,30.12,NNE,16,3.0,5.0,79,0.00,,,0.00,,2013-01-01 15:22:00,
2013-01-01 10:33:00,26.0,21.0,30.12,NNE,25,3.0,4.0,80,0.00,,,0.00,,2013-01-01 15:33:00,
2013-01-01 10:42:00,26.0,21.0,30.12,NNE,25,3.0,4.0,80,0.00,,,0.00,,2013-01-01 15:42:00,
2013-01-01 10:53:00,26.0,20.0,30.11,NE,34,6.0,7.0,77,0.00,,,0.00,,2013-01-01 15:53:00,
2013-01-01 11:02:00,26.0,19.0,30.10,NNE,22,5.0,10.0,75,0.00,,,0.00,,2013-01-01 16:02:00,
2013-01-01 11:12:00,26.0,19.0,30.10,NNE,22,5.0,10.0,75,0.00,,,0.00,,2013-01-01 16:12:00,
2013-01-01 11:22:00,27.0,20.0,30.13,NNE,32,2.0,7.0,74,0.00,,,0.00,,2013-01-01 16:22:00,
2013-01-01 11:33:00,27.0,20.0,30.13,NE,44,6.0,11.0,74,0.00,,,0.00,,2013-01-01 16:33:00,
2013-01-01 11:43:00,27.0,20.0,30.13,NE,44,6.0,11.0,74,0.00,,,0.00,,2013-01-01 16:43:00,
2013-01-01 11:52:00,26.0,19.0,30.13,North,359,5.0,9.0,73,0.00,,,0.00,,2013-01-01 16:52:00,
2013-01-01 12:02:00,27.0,19.0,30.13,NE,44,4.0,7.0,72,0.00,,,0.00,,2013-01-01 17:02:00,
2013-01-01 12:12:00,27.0,19.0,30.13,NE,44,4.0,7.0,72,0.00,,,0.00,,2013-01-01 17:12:00,
2013-01-01 12:22:00,27.0,19.0,30.11,NE,37,4.0,7.0,71,0.00,,,0.00,,2013-01-01 17:22:00,
2013-01-01 12:33:00,27.0,19.0,30.12,ENE,61,2.0,6.0,71,0.00,,,0.00,,2013-01-01 17:33:00,
2013-01-01 12:43:00,27.0,19.0,30.12,ENE,61,2.0,6.0,71,0.00,,,0.00,,2013-01-01 17:43:00,
2013-01-01 12:52:00,27.0,19.0,30.11,NNE,16,3.0,6.0,72,0.00,,,0.00,,2013-01-01 17:52:00,
2013-01-01 13:03:00,27.0,19.0,30.12,NNE,33,3.0,6.0,71,0.00,,,0.00,,2013-01-01 18:03:00,
2013-01-01 13:13:00,27.0,19.0,30.12,NNE,33,3.0,6.0,71,0.00,,,0.00,,2013-01-01 18:13:00,
2013-01-01 13:23:00,26.0,17.0,30.12,NE,34,3.0,4.0,69,0.00,,,0.00,,2013-01-01 18:23:00,
2013-01-01 13:33:00,26.0,18.0,30.11,NE,37,3.0,6.0,70,0.00,,,0.00,,2013-01-01 18:33:00,
2013-01-01 13:43:00,26.0,18.0,30.11,NE,37,3.0,6.0,70,0.00,,,0.00,,2013-01-01 18:43:00,
2013-01-01 13:52:00,26.0,18.0,30.11,NE,37,3.0,6.0,70,0.00,,,0.00,,2013-01-01 18:52:00,
2013-01-01 14:02:00,26.0,17.0,30.09,NNE,27,2.0,5.0,69,0.00,,,0.00,,2013-01-01 19:02:00,
2013-01-01 14:12:00,26.0,17.0,30.09,NNE,27,2.0,5.0,69,0.00,,,0.00,,2013-01-01 19:12:00,
2013-01-01 14:22:00,25.0,16.0,30.08,NNE,29,2.0,3.0,69,0.00,,,0.00,,2013-01-01 19:22:00,
2013-01-01 14:33:00,26.0,17.0,30.09,North,4,2.0,4.0,68,0.00,,,0.00,,2013-01-01 19:33:00,
2013-01-01 14:43:00,26.0,17.0,30.09,North,4,2.0,4.0,68,0.00,,,0.00,,2013-01-01 19:43:00,
2013-01-01 14:52:00,26.0,17.0,30.09,North,359,3.0,5.0,68,0.00,,,0.00,,2013-01-01 19:52:00,
2013-01-01 15:02:00,27.0,17.0,30.10,NNW,348,3.0,4.0,66,0.00,,,0.00,,2013-01-01 20:02:00,
2013-01-01 15:13:00,27.0,17.0,30.10,NNW,348,3.0,4.0,66,0.00,,,0.00,,2013-01-01 20:13:00,
2013-01-01 15:23:00,28.0,17.0,30.10,North,354,4.0,8.0,63,0.00,,,0.00,,2013-01-01 20:23:00,
2013-01-01 15:32:00,28.0,17.0,30.10,WNW,291,2.0,6.0,64,0.00,,,0.00,,2013-01-01 20:32:00,
2013-01-01 15:42:00,28.0,17.0,30.10,WNW,291,2.0,6.0,64,0.00,,,0.00,,2013-01-01 20:42:00,
2013-01-01 15:52:00,28.0,17.0,30.11,WNW,283,0.0,4.0,64,0.00,,,0.00,,2013-01-01 20:52:00,
2013-01-01 16:03:00,28.0,17.0,30.11,NNE,21,1.0,5.0,63,0.00,,,0.00,,2013-01-01 21:03:00,
2013-01-01 16:13:00,28.0,17.0,30.11,NNE,21,1.0,5.0,63,0.00,,,0.00,,2013-01-01 21:13:00,
2013-01-01 16:22:00,29.0,18.0,30.11,NW,317,0.0,5.0,64,0.00,,,0.00,,2013-01-01 21:22:00,
2013-01-01 16:33:00,29.0,18.0,30.10,North,354,2.0,3.0,62,0.00,,,0.00,,2013-01-01 21:33:00,
2013-01-01 16:42:00,29.0,18.0,30.10,North,354,2.0,3.0,62,0.00,,,0.00,,2013-01-01 21:42:00,
2013-01-01 16:52:00,28.0,17.0,30.10,NNW,332,0.0,2.0,63,0.00,,,0.00,,2013-01-01 21:52:00,
2013-01-01 17:03:00,26.0,16.0,30.11,WSW,248,1.0,2.0,66,0.00,,,0.00,,2013-01-01 22:03:00,
2013-01-01 17:12:00,26.0,16.0,30.11,WSW,248,1.0,2.0,66,0.00,,,0.00,,2013-01-01 22:12:00,
2013-01-01 17:22:00,26.0,17.0,30.11,West,270,0.0,2.0,68,0.00,,,0.00,,2013-01-01 22:22:00,
2013-01-01 17:33:00,25.0,16.0,30.11,West,270,0.0,0.0,69,0.00,,,0.00,,2013-01-01 22:33:00,
2013-01-01 17:42:00,25.0,16.0,30.11,West,270,0.0,0.0,69,0.00,,,0.00,,2013-01-01 22:42:00,
2013-01-01 17:52:00,25.0,17.0,30.10,West,270,0.0,1.0,72,0.00,,,0.00,,2013-01-01 22:52:00,
2013-01-01 18:03:00,24.0,17.0,30.10,WSW,238,0.0,1.0,73,0.00,,,0.00,,2013-01-01 23:03:00,
2013-01-01 18:12:00,24.0,17.0,30.10,WSW,238,0.0,1.0,73,0.00,,,0.00,,2013-01-01 23:12:00,
2013-01-01 18:22:00,24.0,17.0,30.10,WSW,238,0.0,1.0,75,0.00,,,0.00,,2013-01-01 23:22:00,
2013-01-01 18:32:00,23.0,17.0,30.10,SW,225,0.0,1.0,76,0.00,,,0.00,,2013-01-01 23:32:00,
2013-01-01 18:42:00,23.0,17.0,30.10,SW,225,0.0,1.0,76,0.00,,,0.00,,2013-01-01 23:42:00,
2013-01-01 18:52:00,23.0,17.0,30.11,SW,235,0.0,1.0,76,0.00,,,0.00,,2013-01-01 23:52:00,
2013-01-01 19:03:00,23.0,17.0,30.11,SW,222,2.0,2.0,76,0.00,,,0.00,,2013-01-02 00:03:00,
2013-01-01 19:12:00,23.0,17.0,30.11,SW,222,2.0,2.0,76,0.00,,,0.00,,2013-01-02 00:12:00,
2013-01-01 19:22:00,24.0,18.0,30.11,West,267,0.0,2.0,76,0.00,,,0.00,,2013-01-02 00:22:00,
2013-01-01 19:32:00,23.0,17.0,30.11,West,277,1.0,3.0,76,0.00,,,0.00,,2013-01-02 00:32:00,
2013-01-01 19:42:00,23.0,17.0,30.11,West,277,1.0,3.0,76,0.00,,,0.00,,2013-01-02 00:42:00,
2013-01-01 19:52:00,23.0,17.0,30.10,West,271,0.0,1.0,77,0.00,,,0.00,,2013-01-02 00:52:00,
2013-01-01 20:02:00,23.0,17.0,30.10,West,271,0.0,1.0,77,0.00,,,0.00,,2013-01-02 01:02:00,
2013-01-01 20:12:00,23.0,17.0,30.10,West,271,0.0,1.0,77,0.00,,,0.00,,2013-01-02 01:12:00,
2013-01-01 20:22:00,22.0,17.0,30.12,SW,222,1.0,2.0,80,0.00,,,0.00,,2013-01-02 01:22:00,
2013-01-01 20:33:00,22.0,16.0,30.12,WSW,248,3.0,4.0,79,0.00,,,0.00,,2013-01-02 01:33:00,
2013-01-01 20:42:00,22.0,16.0,30.12,WSW,248,3.0,4.0,79,0.00,,,0.00,,2013-01-02 01:42:00,
2013-01-01 20:52:00,22.0,16.0,30.12,WSW,238,3.0,5.0,79,0.00,,,0.00,,2013-01-02 01:52:00,
2013-01-01 21:02:00,22.0,16.0,30.12,SW,219,2.0,4.0,79,0.00,,,0.00,,2013-01-02 02:02:00,
2013-01-01 21:12:00,22.0,16.0,30.12,SW,219,2.0,4.0,79,0.00,,,0.00,,2013-01-02 02:12:00,
2013-01-01 21:22:00,22.0,16.0,30.13,SW,228,2.0,4.0,79,0.00,,,0.00,,2013-01-02 02:22:00,
2013-01-01 21:32:00,23.0,17.0,30.12,SW,232,1.0,3.0,79,0.00,,,0.00,,2013-01-02 02:32:00,
2013-01-01 21:42:00,23.0,17.0,30.12,SW,232,1.0,3.0,79,0.00,,,0.00,,2013-01-02 02:42:00,
2013-01-01 21:52:00,22.0,17.0,30.12,SW,229,1.0,4.0,80,0.00,,,0.00,,2013-01-02 02:52:00,
2013-01-01 22:02:00,22.0,17.0,30.12,SW,229,1.0,4.0,80,0.00,,,0.00,,2013-01-02 03:02:00,
2013-01-01 22:12:00,22.0,17.0,30.12,SW,229,1.0,4.0,80,0.00,,,0.00,,2013-01-02 03:12:00,
2013-01-01 22:22:00,22.0,17.0,30.12,SW,229,1.0,4.0,80,0.00,,,0.00,,2013-01-02 03:22:00,
2013-01-01 22:32:00,21.0,16.0,30.12,West,270,1.0,2.0,81,0.00,,,0.00,,2013-01-02 03:32:00,
2013-01-01 22:42:00,21.0,16.0,30.12,West,270,1.0,2.0,81,0.00,,,0.00,,2013-01-02 03:42:00,
2013-01-01 22:53:00,20.0,15.0,30.12,WSW,255,1.0,2.0,82,0.00,,,0.00,,2013-01-02 03:53:00,
2013-01-01 23:03:00,19.0,15.0,30.12,West,260,2.0,5.0,83,0.00,,,0.00,,2013-01-02 04:03:00,
2013-01-01 23:12:00,19.0,15.0,30.12,West,260,2.0,5.0,83,0.00,,,0.00,,2013-01-02 04:12:00,
2013-01-01 23:22:00,18.0,14.0,30.13,SW,235,2.0,4.0,85,0.00,,,0.00,,2013-01-02 04:22:00,
2013-01-01 23:32:00,17.0,14.0,30.13,West,269,2.0,6.0,86,0.00,,,0.00,,2013-01-02 04:32:00,
2013-01-01 23:42:00,17.0,14.0,30.13,West,269,2.0,6.0,86,0.00,,,0.00,,2013-01-02 04:42:00,
2013-01-01 23:52:00,16.0,13.0,30.14,SW,233,1.0,2.0,86,0.00,,,0.00,,2013-01-02 04:52:00,